createdAt,value
2018-04-14T00:00:15.051Z,52.30
2018-04-14T00:01:17.583Z,52.40
2018-04-14T00:02:20.136Z,52.50
2018-04-14T00:03:22.634Z,52.50
2018-04-14T00:04:25.906Z,52.30
2018-04-14T00:05:28.405Z,52.30
2018-04-14T00:06:30.922Z,52.40
2018-04-14T00:07:33.424Z,52.30
2018-04-14T00:08:35.985Z,52.30
2018-04-14T00:09:39.271Z,52.30
2018-04-14T00:10:42.538Z,52.30
2018-04-14T00:11:45.812Z,52.30
2018-04-14T00:12:48.314Z,52.30
2018-04-14T00:13:50.879Z,52.30
2018-04-14T00:14:53.373Z,52.30
2018-04-14T00:15:55.922Z,52.20
2018-04-14T00:16:58.442Z,52.10
2018-04-14T00:18:00.991Z,52.30
2018-04-14T00:19:03.505Z,52.20
2018-04-14T00:20:06.011Z,52.30
2018-04-14T00:21:08.511Z,52.30
2018-04-14T00:22:11.806Z,52.40
2018-04-14T00:23:15.089Z,52.60
2018-04-14T00:24:18.382Z,52.60
2018-04-14T00:25:20.879Z,52.60
2018-04-14T00:26:23.396Z,52.60
2018-04-14T00:27:27.609Z,52.50
2018-04-14T00:28:30.898Z,52.20
2018-04-14T00:29:34.163Z,52.20
2018-04-14T00:30:37.447Z,52.80
2018-04-14T00:31:40.715Z,52.30
2018-04-14T00:32:43.231Z,52.20
2018-04-14T00:33:45.741Z,52.10
2018-04-14T00:34:48.247Z,52.10
2018-04-14T00:35:50.766Z,52.10
2018-04-14T00:36:53.322Z,52.10
2018-04-14T00:37:55.854Z,52.10
2018-04-14T00:38:58.386Z,52.10
2018-04-14T00:40:00.934Z,52.00
2018-04-14T00:41:03.452Z,52.00
2018-04-14T00:42:05.950Z,52.00
2018-04-14T00:43:08.439Z,51.90
2018-04-14T00:44:10.954Z,51.90
2018-04-14T00:45:13.495Z,51.90
2018-04-14T00:46:16.756Z,51.80
2018-04-14T00:47:19.274Z,51.80
2018-04-14T00:48:21.807Z,51.90
2018-04-14T00:49:25.137Z,51.80
2018-04-14T00:50:27.639Z,51.80
2018-04-14T00:51:30.145Z,51.80
2018-04-14T00:52:32.659Z,51.90
2018-04-14T00:53:48.157Z,51.90
2018-04-14T00:54:51.443Z,51.90
2018-04-14T00:55:55.050Z,51.90
2018-04-14T00:56:57.561Z,51.80
2018-04-14T00:58:00.071Z,51.80
2018-04-14T00:59:03.346Z,51.80
2018-04-14T01:00:06.691Z,51.80
2018-04-14T01:01:09.198Z,51.80
2018-04-14T01:02:12.465Z,51.90
2018-04-14T01:03:15.727Z,52.00
2018-04-14T01:04:18.219Z,51.80
2018-04-14T01:05:21.590Z,52.00
2018-04-14T01:06:24.105Z,52.00
2018-04-14T01:07:26.615Z,51.90
2018-04-14T01:08:29.225Z,51.90
2018-04-14T01:09:31.792Z,51.90
2018-04-14T01:10:34.355Z,51.90
2018-04-14T01:11:36.892Z,51.90
2018-04-14T01:12:39.411Z,51.90
2018-04-14T01:13:41.940Z,52.00
2018-04-14T01:14:45.209Z,52.00
2018-04-14T01:15:49.459Z,52.00
2018-04-14T01:16:51.973Z,52.00
2018-04-14T01:17:54.479Z,52.00
2018-04-14T01:18:56.990Z,52.00
2018-04-14T01:19:59.518Z,52.00
2018-04-14T01:21:02.019Z,51.90
2018-04-14T01:22:04.530Z,52.00
2018-04-14T01:23:07.047Z,52.00
2018-04-14T01:24:09.585Z,52.00
2018-04-14T01:25:12.664Z,52.10
2018-04-14T01:26:15.166Z,52.20
2018-04-14T01:27:18.895Z,52.20
2018-04-14T01:28:22.174Z,52.20
2018-04-14T01:29:25.455Z,52.30
2018-04-14T01:30:28.839Z,52.40
2018-04-14T01:31:32.098Z,52.20
2018-04-14T01:32:35.387Z,52.60
2018-04-14T01:33:37.923Z,52.20
2018-04-14T01:34:40.486Z,52.40
2018-04-14T01:35:43.010Z,52.40
2018-04-14T01:36:45.534Z,52.50
2018-04-14T01:37:48.067Z,52.60
2018-04-14T01:38:50.582Z,52.50
2018-04-14T01:39:53.290Z,52.50
2018-04-14T01:40:55.857Z,52.50
2018-04-14T01:41:58.377Z,52.40
2018-04-14T01:43:00.888Z,52.50
2018-04-14T01:44:03.394Z,52.80
2018-04-14T01:45:05.908Z,52.60
2018-04-14T01:46:08.427Z,52.70
2018-04-14T01:47:10.930Z,52.60
2018-04-14T01:48:13.955Z,52.60
2018-04-14T01:49:16.582Z,52.40
2018-04-14T01:50:19.886Z,52.30
2018-04-14T01:51:23.272Z,52.30
2018-04-14T01:52:25.782Z,52.50
2018-04-14T01:53:28.382Z,52.60
2018-04-14T01:54:30.886Z,52.50
2018-04-14T01:55:33.418Z,52.50
2018-04-14T01:56:35.975Z,52.60
2018-04-14T01:57:39.234Z,52.60
2018-04-14T01:58:41.862Z,52.60
2018-04-14T01:59:44.359Z,52.60
2018-04-14T02:00:46.891Z,52.60
2018-04-14T02:01:49.429Z,52.50
2018-04-14T02:02:51.943Z,52.50
2018-04-14T02:03:54.579Z,52.60
2018-04-14T02:04:57.074Z,52.60
2018-04-14T02:05:59.708Z,52.60
2018-04-14T02:07:02.227Z,52.60
2018-04-14T02:08:04.742Z,52.70
2018-04-14T02:09:07.250Z,53.30
2018-04-14T02:10:10.091Z,52.70
2018-04-14T02:11:12.624Z,52.80
2018-04-14T02:12:15.920Z,52.60
2018-04-14T02:13:18.437Z,52.60
2018-04-14T02:14:20.934Z,52.60
2018-04-14T02:15:23.466Z,52.70
2018-04-14T02:16:26.099Z,52.90
2018-04-14T02:17:28.869Z,52.90
2018-04-14T02:18:31.379Z,53.00
2018-04-14T02:19:33.887Z,52.90
2018-04-14T02:20:36.391Z,52.90
2018-04-14T02:21:38.903Z,52.90
2018-04-14T02:22:42.186Z,52.80
2018-04-14T02:23:45.450Z,52.90
2018-04-14T02:24:47.979Z,52.90
2018-04-14T02:25:50.478Z,52.90
2018-04-14T02:26:52.975Z,52.80
2018-04-14T02:27:56.409Z,52.80
2018-04-14T02:28:58.912Z,52.80
2018-04-14T02:30:02.211Z,52.70
2018-04-14T02:31:05.499Z,52.60
2018-04-14T02:32:08.286Z,52.60
2018-04-14T02:33:10.812Z,52.70
2018-04-14T02:34:13.342Z,52.80
2018-04-14T02:35:15.854Z,52.70
2018-04-14T02:36:19.519Z,52.70
2018-04-14T02:37:23.246Z,52.70
2018-04-14T02:38:26.538Z,52.70
2018-04-14T02:39:29.027Z,52.70
2018-04-14T02:40:31.563Z,52.60
2018-04-14T02:41:34.861Z,52.80
2018-04-14T02:42:37.353Z,52.80
2018-04-14T02:43:39.897Z,52.60
2018-04-14T02:44:42.404Z,52.60
2018-04-14T02:45:44.922Z,52.70
2018-04-14T02:46:47.422Z,52.80
2018-04-14T02:47:50.055Z,52.90
2018-04-14T02:48:52.568Z,52.90
2018-04-14T02:49:55.095Z,52.80
2018-04-14T02:50:57.646Z,52.80
2018-04-14T02:52:00.164Z,52.80
2018-04-14T02:53:02.767Z,52.70
2018-04-14T02:54:06.042Z,52.80
2018-04-14T02:55:09.298Z,52.80
2018-04-14T02:56:12.538Z,52.70
2018-04-14T02:57:15.068Z,52.90
2018-04-14T02:58:18.346Z,52.70
2018-04-14T02:59:20.938Z,52.60
2018-04-14T03:01:30.250Z,52.60
2018-04-14T03:02:33.546Z,52.90
2018-04-14T03:03:36.804Z,52.70
2018-04-14T03:04:39.398Z,52.70
2018-04-14T03:05:42.880Z,52.60
2018-04-14T03:06:46.167Z,52.60
2018-04-14T03:07:49.430Z,52.60
2018-04-14T03:08:52.027Z,52.50
2018-04-14T03:09:54.579Z,52.60
2018-04-14T03:10:57.875Z,52.50
2018-04-14T03:12:00.379Z,52.50
2018-04-14T03:13:02.875Z,52.60
2018-04-14T03:14:05.375Z,52.50
2018-04-14T03:15:07.898Z,52.40
2018-04-14T03:16:10.430Z,52.40
2018-04-14T03:17:12.939Z,52.60
2018-04-14T03:18:15.442Z,52.60
2018-04-14T03:19:17.958Z,52.60
2018-04-14T03:20:20.571Z,52.40
2018-04-14T03:21:23.075Z,52.30
2018-04-14T03:22:25.617Z,52.50
2018-04-14T03:23:28.110Z,52.50
2018-04-14T03:24:30.655Z,52.50
2018-04-14T03:25:34.070Z,52.50
2018-04-14T03:26:36.602Z,52.40
2018-04-14T03:27:39.101Z,52.50
2018-04-14T03:28:41.599Z,52.60
2018-04-14T03:29:44.858Z,52.50
2018-04-14T03:30:47.365Z,52.60
2018-04-14T03:31:49.873Z,52.50
2018-04-14T03:32:52.486Z,52.50
2018-04-14T03:33:55.755Z,52.50
2018-04-14T03:34:59.029Z,52.70
2018-04-14T03:36:01.623Z,52.70
2018-04-14T03:37:04.186Z,52.90
2018-04-14T03:38:07.446Z,52.80
2018-04-14T03:39:10.743Z,53.20
2018-04-14T03:40:13.993Z,52.60
2018-04-14T03:41:16.494Z,52.50
2018-04-14T03:42:19.767Z,52.70
2018-04-14T03:43:22.270Z,52.70
2018-04-14T03:44:24.770Z,52.60
2018-04-14T03:45:27.285Z,52.60
2018-04-14T03:46:30.692Z,52.60
2018-04-14T03:47:33.207Z,52.50
2018-04-14T03:48:35.795Z,52.50
2018-04-14T03:49:39.071Z,52.50
2018-04-14T03:50:42.348Z,52.50
2018-04-14T03:51:44.860Z,52.40
2018-04-14T03:52:47.375Z,52.50
2018-04-14T03:53:49.977Z,52.40
2018-04-14T03:54:52.478Z,52.20
2018-04-14T03:55:54.982Z,52.40
2018-04-14T03:56:58.254Z,52.40
2018-04-14T03:58:00.790Z,52.40
2018-04-14T03:59:03.317Z,53.40
2018-04-14T04:00:05.838Z,52.70
2018-04-14T04:01:09.791Z,52.70
2018-04-14T04:02:12.299Z,52.60
2018-04-14T04:03:14.909Z,52.50
2018-04-14T04:04:18.167Z,52.40
2018-04-14T04:05:20.663Z,52.40
2018-04-14T04:06:23.171Z,52.50
2018-04-14T04:07:25.671Z,52.50
2018-04-14T04:08:29.547Z,52.60
2018-04-14T04:09:33.397Z,52.50
2018-04-14T04:10:40.654Z,52.50
2018-04-14T04:11:43.918Z,52.50
2018-04-14T04:12:46.509Z,52.50
2018-04-14T04:13:49.067Z,52.40
2018-04-14T04:14:52.339Z,52.50
2018-04-14T04:15:55.606Z,52.70
2018-04-14T04:16:58.101Z,52.70
